createdAt,value
2024-02-27T00:00:27.605Z,10.70
2024-02-27T00:02:54.696Z,9.27
2024-02-27T00:05:21.693Z,13.13
2024-02-27T00:07:48.620Z,10.97
2024-02-27T00:10:15.694Z,11.37
2024-02-27T00:12:42.806Z,10.47
2024-02-27T00:15:11.008Z,10.73
2024-02-27T00:17:38.036Z,11.63
2024-02-27T00:20:06.163Z,9.50
2024-02-27T00:22:33.189Z,10.53
2024-02-27T00:25:00.084Z,11.30
2024-02-27T00:27:27.076Z,11.30
2024-02-27T00:29:54.970Z,9.33
2024-02-27T00:32:22.004Z,11.93
2024-02-27T00:34:48.942Z,12.03
2024-02-27T00:37:15.861Z,10.67
2024-02-27T00:39:42.770Z,11.37
2024-02-27T00:42:09.776Z,11.17
2024-02-27T00:44:39.262Z,10.70
2024-02-27T00:47:06.322Z,10.40
2024-02-27T00:49:33.295Z,10.70
2024-02-27T00:52:00.247Z,11.33
2024-02-27T00:54:27.233Z,10.13
2024-02-27T00:56:54.229Z,12.90
2024-02-27T00:59:21.163Z,10.67
2024-02-27T01:01:48.081Z,10.23
2024-02-27T01:04:15.048Z,13.03
2024-02-27T01:06:42.062Z,11.87
2024-02-27T01:09:09.017Z,10.93
2024-02-27T01:11:36.217Z,11.47
2024-02-27T01:14:03.357Z,11.03
2024-02-27T01:16:30.267Z,12.70
2024-02-27T01:18:57.216Z,11.70
2024-02-27T01:21:24.196Z,12.93
2024-02-27T01:23:51.068Z,11.27
2024-02-27T01:26:17.928Z,13.07
2024-02-27T01:28:44.815Z,11.10
2024-02-27T01:31:11.851Z,12.40
2024-02-27T01:33:39.983Z,13.17
2024-02-27T01:36:07.617Z,13.47
2024-02-27T01:38:34.809Z,13.97
2024-02-27T01:41:01.727Z,13.07
2024-02-27T01:43:28.617Z,12.93
2024-02-27T01:46:10.890Z,11.83
2024-02-27T01:48:38.221Z,12.17
2024-02-27T01:51:05.979Z,13.00
2024-02-27T01:53:33.109Z,11.67
2024-02-27T01:56:00.222Z,14.63
2024-02-27T01:58:27.496Z,13.03
2024-02-27T02:00:54.656Z,14.97
2024-02-27T02:03:24.638Z,14.03
2024-02-27T02:05:52.293Z,12.80
2024-02-27T02:08:19.415Z,13.87
2024-02-27T02:10:46.347Z,14.53
2024-02-27T02:13:13.721Z,13.03
2024-02-27T02:15:40.773Z,12.53
2024-02-27T02:18:08.014Z,14.00
2024-02-27T02:20:34.993Z,14.20
2024-02-27T02:23:02.431Z,15.63
2024-02-27T02:25:34.027Z,13.63
2024-02-27T02:28:00.962Z,13.80
2024-02-27T02:30:28.046Z,15.03
2024-02-27T02:32:55.277Z,14.43
2024-02-27T02:35:22.388Z,18.80
2024-02-27T02:37:50.976Z,14.10
2024-02-27T02:40:20.836Z,14.93
2024-02-27T02:42:48.401Z,14.97
2024-02-27T02:45:16.096Z,13.57
2024-02-27T02:47:43.188Z,13.67
2024-02-27T02:50:11.494Z,16.43
2024-02-27T02:52:38.473Z,14.40
2024-02-27T02:55:07.009Z,15.07
2024-02-27T02:57:34.351Z,14.90
2024-02-27T03:00:02.364Z,14.70
2024-02-27T03:02:29.347Z,17.43
2024-02-27T03:04:56.239Z,17.67
2024-02-27T03:07:23.217Z,16.33
2024-02-27T03:09:50.085Z,15.33
2024-02-27T03:12:18.802Z,15.57
2024-02-27T03:14:47.252Z,16.33
2024-02-27T03:17:15.814Z,15.93
2024-02-27T03:19:43.503Z,17.10
2024-02-27T03:22:11.210Z,16.60
2024-02-27T03:24:38.575Z,15.47
2024-02-27T03:27:05.642Z,16.73
2024-02-27T03:29:32.667Z,14.97
2024-02-27T03:31:59.628Z,16.30
2024-02-27T03:34:27.547Z,17.07
2024-02-27T03:36:54.952Z,18.77
2024-02-27T03:39:22.032Z,15.37
2024-02-27T03:41:49.012Z,18.03
2024-02-27T03:44:15.941Z,17.53
2024-02-27T03:46:42.888Z,19.70
2024-02-27T03:49:09.957Z,18.30
2024-02-27T03:51:37.330Z,18.03
2024-02-27T03:54:05.230Z,18.63
2024-02-27T03:56:32.223Z,17.77
2024-02-27T03:58:59.170Z,17.67
2024-02-27T04:01:27.829Z,16.77
2024-02-27T04:03:54.808Z,17.83
2024-02-27T04:06:21.774Z,19.90
2024-02-27T04:08:48.735Z,17.60
2024-02-27T04:11:15.954Z,18.50
2024-02-27T04:13:42.875Z,18.57
2024-02-27T04:16:09.870Z,19.23
2024-02-27T04:18:36.870Z,17.13
2024-02-27T04:21:04.692Z,19.47
2024-02-27T04:23:31.680Z,20.63
2024-02-27T04:25:58.550Z,17.60
2024-02-27T04:28:25.529Z,19.33
2024-02-27T04:30:52.392Z,21.77
2024-02-27T04:33:19.452Z,19.30
2024-02-27T04:35:46.723Z,18.80
2024-02-27T04:38:13.719Z,21.10
2024-02-27T04:40:42.260Z,21.33
2024-02-27T04:43:09.395Z,23.50
2024-02-27T04:45:36.530Z,21.67
2024-02-27T04:48:05.703Z,22.17
2024-02-27T04:50:32.722Z,20.67
2024-02-27T04:53:01.151Z,20.27
2024-02-27T04:55:30.253Z,18.10
2024-02-27T04:57:57.732Z,22.90
2024-02-27T05:00:24.919Z,21.43
2024-02-27T05:02:51.863Z,23.93
2024-02-27T05:05:18.887Z,23.67
2024-02-27T05:07:45.942Z,22.27
2024-02-27T05:10:13.033Z,24.97
2024-02-27T05:12:39.904Z,21.53
2024-02-27T05:15:07.450Z,22.63
2024-02-27T05:17:34.390Z,21.80
2024-02-27T05:20:01.293Z,22.70
2024-02-27T05:22:28.182Z,23.03
2024-02-27T05:24:55.056Z,22.90
2024-02-27T05:27:21.997Z,22.93
2024-02-27T05:29:48.934Z,23.00
2024-02-27T05:32:15.811Z,22.27
2024-02-27T05:34:42.756Z,22.97
2024-02-27T05:37:09.833Z,23.27
2024-02-27T05:39:36.843Z,21.87
2024-02-27T05:42:04.181Z,23.70
2024-02-27T05:44:31.220Z,24.10
2024-02-27T05:46:58.117Z,26.47
2024-02-27T05:49:25.174Z,27.00
2024-02-27T05:51:52.104Z,24.20
2024-02-27T05:54:21.479Z,24.27
2024-02-27T05:56:49.044Z,29.10
2024-02-27T05:59:16.006Z,25.50
2024-02-27T06:01:42.902Z,24.83
2024-02-27T06:04:09.900Z,26.87
2024-02-27T06:06:36.990Z,26.30
2024-02-27T06:09:04.997Z,28.33
2024-02-27T06:11:31.998Z,23.53
2024-02-27T06:14:00.702Z,25.33
2024-02-27T06:16:27.642Z,25.70
2024-02-27T06:18:56.540Z,23.73
2024-02-27T06:21:42.393Z,27.43
2024-02-27T06:24:09.393Z,28.20
2024-02-27T06:26:36.453Z,27.20
2024-02-27T06:29:04.617Z,26.23
2024-02-27T06:31:31.638Z,27.30
2024-02-27T06:33:58.657Z,28.23
2024-02-27T06:36:25.776Z,25.87
2024-02-27T06:38:57.097Z,28.17
2024-02-27T06:41:25.205Z,27.37
2024-02-27T06:43:52.235Z,24.43
2024-02-27T06:46:19.147Z,28.30
2024-02-27T06:48:46.500Z,30.07
2024-02-27T06:51:13.714Z,28.77
2024-02-27T06:53:42.231Z,27.67
2024-02-27T06:56:09.214Z,31.10
2024-02-27T06:58:36.157Z,29.33
2024-02-27T07:01:03.112Z,27.10
2024-02-27T07:03:30.346Z,29.90
2024-02-27T07:05:58.909Z,30.33
2024-02-27T07:08:25.876Z,31.33
2024-02-27T07:10:52.757Z,29.93
2024-02-27T07:13:19.930Z,29.23
2024-02-27T07:15:47.973Z,29.37
2024-02-27T07:18:17.228Z,33.73
2024-02-27T07:20:44.695Z,29.30
2024-02-27T07:23:11.674Z,28.90
2024-02-27T07:25:38.587Z,29.30
2024-02-27T07:28:08.097Z,32.50
2024-02-27T07:30:36.524Z,31.03
2024-02-27T07:33:03.896Z,29.30
2024-02-27T07:35:30.919Z,28.33
2024-02-27T07:37:57.880Z,29.20
2024-02-27T07:40:24.829Z,32.20
2024-02-27T07:42:52.736Z,33.90
2024-02-27T07:45:19.676Z,30.23
2024-02-27T07:47:46.613Z,31.23
2024-02-27T07:50:13.568Z,29.00
2024-02-27T07:52:40.519Z,31.77
2024-02-27T07:55:07.904Z,30.37
2024-02-27T07:57:34.835Z,30.97
2024-02-27T08:00:01.972Z,29.47
2024-02-27T08:02:28.990Z,28.90
2024-02-27T08:04:55.866Z,31.53
2024-02-27T08:07:22.800Z,29.43
2024-02-27T08:09:49.927Z,30.73
2024-02-27T08:12:17.113Z,30.50
2024-02-27T08:14:43.991Z,28.87
2024-02-27T08:17:11.724Z,33.13
2024-02-27T08:19:40.679Z,36.73
2024-02-27T08:22:08.037Z,29.53
2024-02-27T08:24:35.125Z,30.27
2024-02-27T08:27:05.468Z,29.43
2024-02-27T08:29:33.835Z,27.07
2024-02-27T08:32:00.742Z,29.30
2024-02-27T08:34:28.035Z,29.43
2024-02-27T08:36:55.168Z,30.60
2024-02-27T08:39:22.129Z,29.80
2024-02-27T08:41:49.148Z,29.47
2024-02-27T08:44:16.062Z,29.30
2024-02-27T08:46:44.693Z,29.97
2024-02-27T08:49:11.701Z,29.47
2024-02-27T08:51:38.810Z,28.80
2024-02-27T08:54:05.882Z,28.57
2024-02-27T08:56:32.856Z,31.37
2024-02-27T08:58:59.890Z,31.83
2024-02-27T09:01:26.859Z,27.87
2024-02-27T09:03:53.998Z,28.50
2024-02-27T09:06:20.990Z,27.33
2024-02-27T09:08:47.979Z,29.60
2024-02-27T09:11:14.957Z,29.37
2024-02-27T09:13:41.855Z,29.40
2024-02-27T09:16:08.964Z,31.83
2024-02-27T09:18:36.542Z,30.73
2024-02-27T09:21:04.114Z,25.33
2024-02-27T09:23:31.097Z,25.17
2024-02-27T09:25:58.122Z,26.37
2024-02-27T09:28:25.051Z,23.53
2024-02-27T09:30:51.982Z,24.00
2024-02-27T09:33:19.028Z,19.33
2024-02-27T09:35:46.337Z,19.47
2024-02-27T09:38:13.247Z,19.30
2024-02-27T09:40:42.653Z,17.63
2024-02-27T09:43:24.234Z,19.53
2024-02-27T09:45:51.235Z,19.03
2024-02-27T09:48:21.721Z,19.87
2024-02-27T09:50:51.873Z,20.87
2024-02-27T09:53:21.108Z,19.07
2024-02-27T09:55:48.231Z,18.57
2024-02-27T09:58:17.439Z,21.33
2024-02-27T10:00:44.577Z,19.77
2024-02-27T10:03:13.070Z,19.30
2024-02-27T10:05:42.536Z,17.43
2024-02-27T10:08:21.199Z,18.80
2024-02-27T10:10:48.981Z,17.30
2024-02-27T10:13:15.925Z,16.37
2024-02-27T10:15:43.004Z,18.73
2024-02-27T10:18:10.192Z,18.47
2024-02-27T10:20:37.282Z,17.83
2024-02-27T10:23:05.273Z,15.63
2024-02-27T10:25:32.285Z,15.40
2024-02-27T10:28:00.603Z,16.80
2024-02-27T10:30:29.174Z,17.23
2024-02-27T10:32:56.319Z,17.83
2024-02-27T10:35:25.358Z,16.13
2024-02-27T10:37:52.603Z,17.97
2024-02-27T10:40:20.710Z,16.20
2024-02-27T10:42:48.810Z,17.57
2024-02-27T10:45:16.949Z,16.73
2024-02-27T10:47:47.327Z,14.07
2024-02-27T10:50:16.628Z,19.27
2024-02-27T10:52:45.417Z,16.97
2024-02-27T10:55:13.939Z,16.03
2024-02-27T10:57:41.763Z,17.87
2024-02-27T11:00:09.725Z,14.77
2024-02-27T11:02:42.009Z,14.87
2024-02-27T11:05:10.787Z,17.17
2024-02-27T11:07:37.796Z,16.70
2024-02-27T11:10:06.423Z,19.87
2024-02-27T11:12:36.543Z,18.17
2024-02-27T11:15:09.746Z,16.50
2024-02-27T11:17:47.747Z,18.00
2024-02-27T11:20:17.029Z,16.27
2024-02-27T11:22:46.081Z,16.23
2024-02-27T11:25:14.088Z,17.37
2024-02-27T11:27:41.973Z,15.17
2024-02-27T11:30:10.377Z,15.63
2024-02-27T11:32:39.147Z,18.07
2024-02-27T11:35:07.847Z,16.97
2024-02-27T11:37:35.929Z,14.60
2024-02-27T11:40:05.664Z,15.93
2024-02-27T11:42:44.707Z,14.60
2024-02-27T11:45:26.388Z,14.53
2024-02-27T11:47:53.864Z,13.70
2024-02-27T11:50:36.650Z,13.93
2024-02-27T11:53:19.257Z,13.90
2024-02-27T11:55:47.732Z,14.67
2024-02-27T11:58:15.933Z,13.73
2024-02-27T12:00:47.136Z,14.57
2024-02-27T12:03:14.570Z,14.73
2024-02-27T12:05:45.062Z,13.93
2024-02-27T12:08:12.048Z,13.73
2024-02-27T12:10:39.396Z,15.30
2024-02-27T12:13:06.262Z,14.57
2024-02-27T12:15:33.251Z,13.93
2024-02-27T12:18:00.438Z,12.00
2024-02-27T12:20:27.457Z,14.20
2024-02-27T12:22:54.822Z,13.77
2024-02-27T12:25:21.813Z,13.87
2024-02-27T12:27:55.096Z,16.70
2024-02-27T12:30:24.432Z,15.30
2024-02-27T12:32:52.412Z,18.10
2024-02-27T12:35:19.948Z,17.53
2024-02-27T12:37:50.760Z,20.40
2024-02-27T12:40:21.024Z,22.97
2024-02-27T12:42:51.653Z,19.43
2024-02-27T12:45:20.371Z,17.77
2024-02-27T12:47:51.704Z,18.07
2024-02-27T12:50:21.571Z,18.10
2024-02-27T12:52:58.718Z,18.10
2024-02-27T12:55:33.808Z,15.13
2024-02-27T12:58:00.942Z,13.87
2024-02-27T13:00:32.649Z,15.67
2024-02-27T13:02:59.873Z,15.43
2024-02-27T13:05:28.011Z,14.23
2024-02-27T13:07:56.901Z,14.20
2024-02-27T13:10:24.517Z,16.07
2024-02-27T13:13:11.866Z,16.30
2024-02-27T13:15:43.055Z,15.13
2024-02-27T13:18:13.628Z,13.97
2024-02-27T13:20:41.867Z,15.60
2024-02-27T13:23:17.009Z,17.17
2024-02-27T13:25:51.816Z,16.03
2024-02-27T13:28:19.754Z,14.33
2024-02-27T13:30:47.228Z,13.90
2024-02-27T13:33:14.448Z,14.93
2024-02-27T13:35:41.408Z,15.00
2024-02-27T13:38:08.329Z,14.80
2024-02-27T13:40:35.193Z,15.70
2024-02-27T13:43:03.936Z,16.77
2024-02-27T13:45:30.946Z,14.97
2024-02-27T13:47:57.914Z,16.40
2024-02-27T13:50:25.776Z,16.77
2024-02-27T13:52:52.705Z,17.23
2024-02-27T13:55:19.599Z,16.50
2024-02-27T13:57:46.607Z,15.27
2024-02-27T14:00:14.371Z,14.30
2024-02-27T14:02:41.892Z,15.93
2024-02-27T14:05:09.678Z,15.67
2024-02-27T14:07:38.056Z,13.97
2024-02-27T14:10:06.184Z,16.07
2024-02-27T14:12:33.642Z,14.87
2024-02-27T14:15:00.924Z,15.03
2024-02-27T14:17:27.877Z,15.50
2024-02-27T14:19:55.065Z,16.67
2024-02-27T14:22:23.067Z,15.17
2024-02-27T14:24:50.135Z,15.43
2024-02-27T14:27:17.159Z,14.07
2024-02-27T14:29:44.649Z,14.23
2024-02-27T14:32:11.754Z,16.73
2024-02-27T14:34:39.151Z,12.80
2024-02-27T14:37:06.656Z,14.83
2024-02-27T14:39:33.681Z,16.47
2024-02-27T14:42:00.717Z,13.87
2024-02-27T14:44:28.209Z,14.50
2024-02-27T14:46:55.668Z,13.87
2024-02-27T14:49:23.411Z,13.47
2024-02-27T14:51:56.528Z,14.77
2024-02-27T14:54:24.446Z,14.80
2024-02-27T14:56:52.550Z,15.17
2024-02-27T14:59:19.922Z,13.47
2024-02-27T15:01:53.865Z,13.03
2024-02-27T15:04:27.018Z,13.83
2024-02-27T15:06:54.169Z,13.40
2024-02-27T15:09:21.368Z,14.07
2024-02-27T15:11:48.256Z,14.73
2024-02-27T15:14:15.226Z,13.37
2024-02-27T15:16:42.218Z,13.57
2024-02-27T15:19:09.357Z,20.90
2024-02-27T15:21:36.766Z,18.17
2024-02-27T15:24:05.041Z,14.60
2024-02-27T15:26:32.209Z,15.17
2024-02-27T15:28:59.440Z,15.20
2024-02-27T15:31:26.436Z,12.63
2024-02-27T15:33:53.488Z,13.07
2024-02-27T15:36:20.781Z,16.47
2024-02-27T15:38:47.760Z,16.90
2024-02-27T15:41:14.780Z,14.10
2024-02-27T15:43:42.079Z,17.17
2024-02-27T15:46:10.512Z,15.60
2024-02-27T15:48:38.121Z,18.93
2024-02-27T15:51:09.662Z,18.20
2024-02-27T15:53:40.790Z,16.87
2024-02-27T15:56:09.113Z,15.60
2024-02-27T15:58:38.122Z,15.97
2024-02-27T16:01:06.437Z,16.27
2024-02-27T16:04:29.811Z,15.77
2024-02-27T16:07:12.566Z,16.37
2024-02-27T16:09:40.764Z,17.30
2024-02-27T16:12:18.388Z,18.20
2024-02-27T16:14:50.738Z,15.27
2024-02-27T16:17:18.798Z,15.43
2024-02-27T16:19:46.156Z,13.47
2024-02-27T16:22:13.428Z,16.17
2024-02-27T16:24:40.393Z,14.70
2024-02-27T16:27:07.427Z,12.97
2024-02-27T16:29:34.423Z,16.33
2024-02-27T16:32:01.759Z,15.03
2024-02-27T16:34:29.095Z,13.87
2024-02-27T16:36:58.807Z,14.60
2024-02-27T16:39:25.792Z,15.90
2024-02-27T16:41:52.787Z,15.10
2024-02-27T16:44:19.736Z,14.23
2024-02-27T16:46:47.277Z,16.30
2024-02-27T16:49:14.311Z,14.90
2024-02-27T16:51:41.407Z,14.97
2024-02-27T16:54:09.133Z,15.67
2024-02-27T16:56:37.311Z,18.10
2024-02-27T16:59:04.702Z,18.00
2024-02-27T17:01:31.763Z,14.50
2024-02-27T17:03:58.850Z,15.93
2024-02-27T17:06:27.614Z,18.10
2024-02-27T17:08:54.835Z,16.50
2024-02-27T17:11:21.778Z,17.50
2024-02-27T17:13:48.768Z,19.10
2024-02-27T17:16:15.657Z,17.13
2024-02-27T17:18:42.621Z,17.57
2024-02-27T17:21:09.835Z,16.60
2024-02-27T17:23:36.822Z,16.13
2024-02-27T17:26:04.737Z,17.23
2024-02-27T17:28:31.751Z,16.50
2024-02-27T17:30:58.740Z,20.20
2024-02-27T17:33:26.176Z,21.90
2024-02-27T17:35:53.344Z,17.87
2024-02-27T17:38:20.237Z,17.93
2024-02-27T17:40:47.192Z,18.93
2024-02-27T17:43:14.178Z,20.80
2024-02-27T17:45:41.170Z,19.43
2024-02-27T17:48:14.323Z,19.50
2024-02-27T17:50:41.878Z,19.57
2024-02-27T17:53:09.997Z,20.60
2024-02-27T17:55:36.947Z,21.73
2024-02-27T17:58:06.624Z,23.37
2024-02-27T18:00:33.777Z,24.67
2024-02-27T18:03:01.061Z,24.37
2024-02-27T18:05:28.096Z,28.40
2024-02-27T18:07:55.087Z,26.10
2024-02-27T18:10:21.968Z,25.23
2024-02-27T18:12:49.027Z,26.27
2024-02-27T18:15:20.052Z,25.63
2024-02-27T18:17:49.680Z,24.07
2024-02-27T18:20:17.174Z,24.83
2024-02-27T18:22:45.008Z,21.87
2024-02-27T18:25:13.172Z,23.00
2024-02-27T18:27:41.194Z,22.50
2024-02-27T18:30:10.355Z,18.73
2024-02-27T18:32:41.588Z,20.03
2024-02-27T18:35:09.437Z,20.30
2024-02-27T18:37:36.447Z,21.57
2024-02-27T18:40:05.635Z,20.33
2024-02-27T18:42:32.786Z,19.50
2024-02-27T18:44:59.732Z,18.00
2024-02-27T18:47:26.639Z,19.30
2024-02-27T18:49:53.809Z,16.93
2024-02-27T18:52:21.059Z,16.97
2024-02-27T18:54:48.682Z,17.23
2024-02-27T18:57:15.964Z,20.30
2024-02-27T18:59:43.042Z,18.13
2024-02-27T19:02:10.368Z,19.43
2024-02-27T19:04:37.294Z,18.90
2024-02-27T19:07:05.268Z,18.77
2024-02-27T19:09:32.418Z,21.23
2024-02-27T19:11:59.671Z,19.93
2024-02-27T19:14:26.854Z,21.97
2024-02-27T19:16:54.143Z,23.10
2024-02-27T19:19:21.080Z,21.63
2024-02-27T19:21:49.273Z,19.63
2024-02-27T19:24:17.495Z,18.77
2024-02-27T19:26:44.593Z,18.93
2024-02-27T19:29:11.501Z,21.20
2024-02-27T19:31:38.650Z,18.67
2024-02-27T19:34:05.708Z,19.53
2024-02-27T19:36:34.074Z,17.30
2024-02-27T19:39:02.603Z,18.10
2024-02-27T19:41:29.522Z,19.13
2024-02-27T19:43:56.404Z,19.47
2024-02-27T19:46:25.332Z,16.97
2024-02-27T19:48:52.449Z,17.87
2024-02-27T19:51:21.165Z,17.40
2024-02-27T19:53:49.849Z,18.73
2024-02-27T19:56:18.264Z,17.63
2024-02-27T19:58:45.389Z,19.60
2024-02-27T20:01:14.472Z,15.40
2024-02-27T20:03:42.064Z,19.20
2024-02-27T20:06:09.284Z,20.07
2024-02-27T20:08:37.147Z,20.70
2024-02-27T20:11:04.484Z,19.90
2024-02-27T20:13:31.543Z,19.80
2024-02-27T20:15:59.988Z,19.40
2024-02-27T20:18:27.107Z,18.50
2024-02-27T20:21:00.032Z,18.57
2024-02-27T20:23:26.922Z,18.07
2024-02-27T20:25:54.828Z,15.90
2024-02-27T20:28:21.848Z,17.80
2024-02-27T20:30:51.388Z,17.53
2024-02-27T20:33:18.701Z,17.37
2024-02-27T20:35:47.879Z,18.67
2024-02-27T20:38:17.529Z,17.83
2024-02-27T20:40:48.850Z,20.13
2024-02-27T20:43:15.744Z,18.40
2024-02-27T20:45:43.079Z,19.00
2024-02-27T20:48:10.521Z,21.43
2024-02-27T20:50:38.150Z,20.40
2024-02-27T20:53:05.197Z,17.53
2024-02-27T20:55:32.122Z,18.73
2024-02-27T20:57:59.129Z,18.57
2024-02-27T21:00:26.011Z,18.73
2024-02-27T21:02:53.544Z,18.60
2024-02-27T21:05:20.654Z,15.77
2024-02-27T21:07:47.629Z,18.67
2024-02-27T21:10:14.600Z,16.87
2024-02-27T21:12:41.557Z,15.97
2024-02-27T21:15:09.899Z,16.53
2024-02-27T21:17:36.968Z,16.40
2024-02-27T21:20:04.660Z,16.57
2024-02-27T21:22:31.522Z,16.40
2024-02-27T21:24:58.425Z,18.00
2024-02-27T21:27:25.368Z,16.33
2024-02-27T21:29:52.312Z,17.67
2024-02-27T21:32:19.211Z,16.73
2024-02-27T21:34:46.579Z,16.80
2024-02-27T21:37:13.576Z,17.17
2024-02-27T21:39:41.156Z,17.07
2024-02-27T21:42:08.300Z,16.43
2024-02-27T21:44:35.227Z,16.83
2024-02-27T21:47:02.195Z,16.90
2024-02-27T21:49:29.216Z,15.33
2024-02-27T21:52:02.573Z,16.63
2024-02-27T21:54:30.587Z,16.50
2024-02-27T21:56:57.732Z,18.07
2024-02-27T21:59:24.622Z,18.83
2024-02-27T22:01:51.999Z,17.37
2024-02-27T22:04:19.849Z,19.10
2024-02-27T22:06:47.563Z,18.13
2024-02-27T22:09:15.023Z,19.77
2024-02-27T22:11:42.506Z,19.20
2024-02-27T22:14:11.395Z,18.80
2024-02-27T22:16:38.449Z,19.97
2024-02-27T22:19:05.671Z,20.83
2024-02-27T22:21:32.690Z,23.40
2024-02-27T22:23:59.715Z,22.63
2024-02-27T22:26:26.662Z,23.43
2024-02-27T22:28:53.566Z,21.93
2024-02-27T22:31:20.470Z,23.93
2024-02-27T22:33:47.422Z,23.33
2024-02-27T22:36:15.525Z,23.83
2024-02-27T22:38:42.727Z,23.97
2024-02-27T22:41:10.914Z,26.40
2024-02-27T22:43:38.903Z,24.43
2024-02-27T22:46:06.145Z,23.57
2024-02-27T22:48:33.204Z,26.73
2024-02-27T22:51:00.151Z,28.30
2024-02-27T22:53:27.087Z,39.27
2024-02-27T22:55:54.038Z,28.57
2024-02-27T22:58:20.937Z,26.30
2024-02-27T23:00:47.924Z,29.90
2024-02-27T23:03:15.021Z,27.80
2024-02-27T23:05:42.034Z,27.03
2024-02-27T23:08:09.049Z,26.83
2024-02-27T23:10:36.016Z,27.27
2024-02-27T23:13:03.101Z,25.23
2024-02-27T23:15:30.045Z,26.07
2024-02-27T23:17:57.150Z,22.03
2024-02-27T23:20:24.929Z,24.63
2024-02-27T23:22:51.968Z,22.60
2024-02-27T23:25:19.245Z,26.37
2024-02-27T23:27:46.147Z,25.80
2024-02-27T23:30:13.103Z,24.20
2024-02-27T23:32:40.139Z,24.83
2024-02-27T23:35:07.485Z,27.50
2024-02-27T23:37:34.350Z,24.07
2024-02-27T23:40:01.230Z,24.27
2024-02-27T23:42:28.462Z,24.73
2024-02-27T23:44:56.017Z,25.40
2024-02-27T23:47:23.249Z,25.27
2024-02-27T23:49:50.205Z,24.40
2024-02-27T23:52:17.165Z,24.40
2024-02-27T23:54:44.364Z,27.53
2024-02-27T23:57:11.567Z,27.37
2024-02-27T23:59:38.578Z,23.20
